Terminal Aerodrome Forecast
Issued by NWS Rapid City, SD

Home | Current Version | Previous Version | Graphics & Text | Print | Product List | Glossary On
Versions: 1 2 3 4 5 6 7 8 9 10 11 12 13 14 15 16 17 18 19 20 21 22 23 24 25
219
FTUS43 KUNR 271809 AAA
TAFRAP
TAF AMD
KRAP 271809Z 2718/2818 15009KT P6SM BKN004
     FM271900 16012KT P6SM SCT120
     FM280100 12008KT P6SM BKN050
     FM280500 05010KT 5SM -RA BR OVC015
     FM281100 08010KT 2SM -RA BR OVC008=

USA.gov is the U.S. government's official web portal to all federal, state and local government web resources and services.